sensor_id;sensor_type;location;lat;lon;timestamp;temperature;humidity
19829;DHT22;10075;50.924;4.396;2024-03-22T00:02:26;14.20;99.90
19829;DHT22;10075;50.924;4.396;2024-03-22T00:04:52;14.20;99.90
19829;DHT22;10075;50.924;4.396;2024-03-22T00:07:19;14.30;99.90
19829;DHT22;10075;50.924;4.396;2024-03-22T00:09:45;14.30;99.90
19829;DHT22;10075;50.924;4.396;2024-03-22T00:12:12;14.30;99.90
19829;DHT22;10075;50.924;4.396;2024-03-22T00:14:37;14.20;99.90
19829;DHT22;10075;50.924;4.396;2024-03-22T00:17:06;14.20;99.90
19829;DHT22;10075;50.924;4.396;2024-03-22T00:19:32;14.30;99.90
19829;DHT22;10075;50.924;4.396;2024-03-22T00:21:58;14.40;99.90
19829;DHT22;10075;50.924;4.396;2024-03-22T00:24:24;14.50;99.90
19829;DHT22;10075;50.924;4.396;2024-03-22T00:26:51;14.40;99.90
19829;DHT22;10075;50.924;4.396;2024-03-22T00:29:17;14.40;99.90
19829;DHT22;10075;50.924;4.396;2024-03-22T00:31:44;14.40;99.90
19829;DHT22;10075;50.924;4.396;2024-03-22T00:34:11;14.50;99.90
19829;DHT22;10075;50.924;4.396;2024-03-22T00:36:38;14.50;99.90
19829;DHT22;10075;50.924;4.396;2024-03-22T00:39:04;14.50;99.90
19829;DHT22;10075;50.924;4.396;2024-03-22T00:41:31;14.50;99.90
19829;DHT22;10075;50.924;4.396;2024-03-22T00:43:57;14.30;99.90
19829;DHT22;10075;50.924;4.396;2024-03-22T00:46:24;14.20;99.90
19829;DHT22;10075;50.924;4.396;2024-03-22T00:48:50;14.20;99.90
19829;DHT22;10075;50.924;4.396;2024-03-22T00:51:18;14.20;99.90
19829;DHT22;10075;50.924;4.396;2024-03-22T00:53:45;14.10;99.90
19829;DHT22;10075;50.924;4.396;2024-03-22T00:56:11;14.20;99.90
19829;DHT22;10075;50.924;4.396;2024-03-22T00:58:38;14.20;99.90
19829;DHT22;10075;50.924;4.396;2024-03-22T01:01:04;14.00;99.90
19829;DHT22;10075;50.924;4.396;2024-03-22T01:03:31;14.10;99.90
19829;DHT22;10075;50.924;4.396;2024-03-22T01:05:57;14.00;99.90
19829;DHT22;10075;50.924;4.396;2024-03-22T01:08:25;13.90;99.90
19829;DHT22;10075;50.924;4.396;2024-03-22T01:10:51;13.90;99.90
19829;DHT22;10075;50.924;4.396;2024-03-22T01:13:18;13.80;99.90
19829;DHT22;10075;50.924;4.396;2024-03-22T01:15:44;13.70;99.90
19829;DHT22;10075;50.924;4.396;2024-03-22T01:18:11;13.70;99.90
19829;DHT22;10075;50.924;4.396;2024-03-22T01:20:37;13.60;99.90
19829;DHT22;10075;50.924;4.396;2024-03-22T01:23:04;13.50;99.90
19829;DHT22;10075;50.924;4.396;2024-03-22T01:25:31;13.50;99.90
19829;DHT22;10075;50.924;4.396;2024-03-22T01:27:58;13.40;99.90
19829;DHT22;10075;50.924;4.396;2024-03-22T01:30:24;13.40;99.90
19829;DHT22;10075;50.924;4.396;2024-03-22T01:32:54;13.30;99.90
19829;DHT22;10075;50.924;4.396;2024-03-22T01:35:19;13.40;99.90
19829;DHT22;10075;50.924;4.396;2024-03-22T01:37:46;13.30;99.90
19829;DHT22;10075;50.924;4.396;2024-03-22T01:40:13;13.30;99.90
19829;DHT22;10075;50.924;4.396;2024-03-22T01:42:41;13.30;99.90
19829;DHT22;10075;50.924;4.396;2024-03-22T01:45:08;13.30;99.90
19829;DHT22;10075;50.924;4.396;2024-03-22T01:47:35;13.30;99.90
19829;DHT22;10075;50.924;4.396;2024-03-22T01:50:01;13.30;99.90
19829;DHT22;10075;50.924;4.396;2024-03-22T01:52:28;13.20;99.90
19829;DHT22;10075;50.924;4.396;2024-03-22T01:54:55;13.30;99.90
19829;DHT22;10075;50.924;4.396;2024-03-22T01:57:22;13.20;99.90
19829;DHT22;10075;50.924;4.396;2024-03-22T01:59:51;13.10;99.90
19829;DHT22;10075;50.924;4.396;2024-03-22T02:02:20;13.00;99.90
19829;DHT22;10075;50.924;4.396;2024-03-22T02:04:49;13.10;99.90
19829;DHT22;10075;50.924;4.396;2024-03-22T02:07:16;13.00;99.90
19829;DHT22;10075;50.924;4.396;2024-03-22T02:09:42;12.90;99.90
19829;DHT22;10075;50.924;4.396;2024-03-22T02:12:09;12.70;99.90
19829;DHT22;10075;50.924;4.396;2024-03-22T02:14:35;12.70;99.90
19829;DHT22;10075;50.924;4.396;2024-03-22T02:17:04;12.60;99.90
19829;DHT22;10075;50.924;4.396;2024-03-22T02:19:30;12.70;99.90
19829;DHT22;10075;50.924;4.396;2024-03-22T02:21:57;12.80;99.90
19829;DHT22;10075;50.924;4.396;2024-03-22T02:24:24;12.90;99.90
19829;DHT22;10075;50.924;4.396;2024-03-22T02:26:51;13.00;99.90
19829;DHT22;10075;50.924;4.396;2024-03-22T02:29:17;13.00;99.90
19829;DHT22;10075;50.924;4.396;2024-03-22T02:31:44;13.00;99.90
19829;DHT22;10075;50.924;4.396;2024-03-22T02:34:09;13.00;99.90
19829;DHT22;10075;50.924;4.396;2024-03-22T02:36:36;13.10;99.90
19829;DHT22;10075;50.924;4.396;2024-03-22T02:39:02;13.00;99.90
19829;DHT22;10075;50.924;4.396;2024-03-22T02:41:31;13.00;99.90
19829;DHT22;10075;50.924;4.396;2024-03-22T02:43:57;13.00;99.90
19829;DHT22;10075;50.924;4.396;2024-03-22T02:46:24;13.00;99.90
19829;DHT22;10075;50.924;4.396;2024-03-22T02:48:50;13.20;99.90
19829;DHT22;10075;50.924;4.396;2024-03-22T02:51:17;13.10;99.90
19829;DHT22;10075;50.924;4.396;2024-03-22T02:53:42;13.10;99.90
19829;DHT22;10075;50.924;4.396;2024-03-22T02:56:09;13.00;99.90
19829;DHT22;10075;50.924;4.396;2024-03-22T02:58:37;13.00;99.90
19829;DHT22;10075;50.924;4.396;2024-03-22T03:01:04;12.90;99.90
19829;DHT22;10075;50.924;4.396;2024-03-22T03:03:31;13.00;99.90
19829;DHT22;10075;50.924;4.396;2024-03-22T03:05:58;13.00;99.90
19829;DHT22;10075;50.924;4.396;2024-03-22T03:08:24;12.90;99.90
19829;DHT22;10075;50.924;4.396;2024-03-22T03:10:51;13.00;99.90
19829;DHT22;10075;50.924;4.396;2024-03-22T03:13:17;13.00;99.90
19829;DHT22;10075;50.924;4.396;2024-03-22T03:15:45;12.90;99.90
19829;DHT22;10075;50.924;4.396;2024-03-22T03:18:11;12.80;99.90
19829;DHT22;10075;50.924;4.396;2024-03-22T03:20:38;12.80;99.90
19829;DHT22;10075;50.924;4.396;2024-03-22T03:23:04;12.70;99.90
19829;DHT22;10075;50.924;4.396;2024-03-22T03:25:30;12.60;99.90
19829;DHT22;10075;50.924;4.396;2024-03-22T03:27:56;12.70;99.90
19829;DHT22;10075;50.924;4.396;2024-03-22T03:30:23;12.80;99.90
19829;DHT22;10075;50.924;4.396;2024-03-22T03:32:50;12.90;99.90
19829;DHT22;10075;50.924;4.396;2024-03-22T03:35:17;12.80;99.90
19829;DHT22;10075;50.924;4.396;2024-03-22T03:37:43;12.80;99.90
19829;DHT22;10075;50.924;4.396;2024-03-22T03:40:11;12.70;99.90
19829;DHT22;10075;50.924;4.396;2024-03-22T03:42:37;12.70;99.90
19829;DHT22;10075;50.924;4.396;2024-03-22T03:45:04;12.70;99.90
19829;DHT22;10075;50.924;4.396;2024-03-22T03:47:30;12.70;99.90
19829;DHT22;10075;50.924;4.396;2024-03-22T03:49:58;12.70;99.90
19829;DHT22;10075;50.924;4.396;2024-03-22T03:52:24;12.70;99.90
19829;DHT22;10075;50.924;4.396;2024-03-22T03:54:51;12.60;99.90
19829;DHT22;10075;50.924;4.396;2024-03-22T03:57:17;12.60;99.90
19829;DHT22;10075;50.924;4.396;2024-03-22T03:59:44;12.60;99.90
19829;DHT22;10075;50.924;4.396;2024-03-22T04:02:10;12.60;99.90
19829;DHT22;10075;50.924;4.396;2024-03-22T04:04:37;12.70;99.90
19829;DHT22;10075;50.924;4.396;2024-03-22T04:07:04;12.50;99.90
19829;DHT22;10075;50.924;4.396;2024-03-22T04:09:31;12.40;99.90
19829;DHT22;10075;50.924;4.396;2024-03-22T04:11:57;12.40;99.90
19829;DHT22;10075;50.924;4.396;2024-03-22T04:14:24;12.30;99.90
19829;DHT22;10075;50.924;4.396;2024-03-22T04:16:50;12.40;99.90
19829;DHT22;10075;50.924;4.396;2024-03-22T04:19:20;12.40;99.90
19829;DHT22;10075;50.924;4.396;2024-03-22T04:21:46;12.50;99.90
19829;DHT22;10075;50.924;4.396;2024-03-22T04:24:14;12.50;99.90
19829;DHT22;10075;50.924;4.396;2024-03-22T04:26:40;12.50;99.90
19829;DHT22;10075;50.924;4.396;2024-03-22T04:29:07;12.40;99.90
19829;DHT22;10075;50.924;4.396;2024-03-22T04:31:33;12.40;99.90
19829;DHT22;10075;50.924;4.396;2024-03-22T04:34:00;12.50;99.90
19829;DHT22;10075;50.924;4.396;2024-03-22T04:36:25;12.50;99.90
19829;DHT22;10075;50.924;4.396;2024-03-22T04:38:52;12.50;99.90
19829;DHT22;10075;50.924;4.396;2024-03-22T04:41:21;12.60;99.90
19829;DHT22;10075;50.924;4.396;2024-03-22T04:43:47;12.60;99.90
19829;DHT22;10075;50.924;4.396;2024-03-22T04:46:14;12.50;99.90
19829;DHT22;10075;50.924;4.396;2024-03-22T04:48:40;12.40;99.90
19829;DHT22;10075;50.924;4.396;2024-03-22T04:51:07;12.50;99.90
19829;DHT22;10075;50.924;4.396;2024-03-22T04:53:33;12.60;99.90
19829;DHT22;10075;50.924;4.396;2024-03-22T04:56:00;12.60;99.90
19829;DHT22;10075;50.924;4.396;2024-03-22T04:58:27;12.60;99.90
19829;DHT22;10075;50.924;4.396;2024-03-22T05:00:57;12.50;99.90
19829;DHT22;10075;50.924;4.396;2024-03-22T05:03:23;12.50;99.90
19829;DHT22;10075;50.924;4.396;2024-03-22T05:05:51;12.40;99.90
19829;DHT22;10075;50.924;4.396;2024-03-22T05:08:16;12.50;99.90
19829;DHT22;10075;50.924;4.396;2024-03-22T05:10:43;12.50;99.90
19829;DHT22;10075;50.924;4.396;2024-03-22T05:13:09;12.40;99.90
19829;DHT22;10075;50.924;4.396;2024-03-22T05:15:38;12.40;99.90
19829;DHT22;10075;50.924;4.396;2024-03-22T05:18:04;12.50;99.90
19829;DHT22;10075;50.924;4.396;2024-03-22T05:20:31;12.30;99.90
19829;DHT22;10075;50.924;4.396;2024-03-22T05:22:57;12.30;99.90
19829;DHT22;10075;50.924;4.396;2024-03-22T05:25:24;12.30;99.90
19829;DHT22;10075;50.924;4.396;2024-03-22T05:27:51;12.20;99.90
19829;DHT22;10075;50.924;4.396;2024-03-22T05:30:18;12.30;99.90
19829;DHT22;10075;50.924;4.396;2024-03-22T05:32:46;12.30;99.90
19829;DHT22;10075;50.924;4.396;2024-03-22T05:35:14;12.30;99.90
19829;DHT22;10075;50.924;4.396;2024-03-22T05:37:40;12.40;99.90
19829;DHT22;10075;50.924;4.396;2024-03-22T05:40:08;12.30;99.90
19829;DHT22;10075;50.924;4.396;2024-03-22T05:42:35;12.30;99.90
19829;DHT22;10075;50.924;4.396;2024-03-22T05:45:02;12.20;99.90
19829;DHT22;10075;50.924;4.396;2024-03-22T05:47:28;12.20;99.90
19829;DHT22;10075;50.924;4.396;2024-03-22T05:49:58;12.30;99.90
19829;DHT22;10075;50.924;4.396;2024-03-22T05:52:24;12.30;99.90
19829;DHT22;10075;50.924;4.396;2024-03-22T05:54:51;12.40;99.90
19829;DHT22;10075;50.924;4.396;2024-03-22T05:57:17;12.40;99.90
19829;DHT22;10075;50.924;4.396;2024-03-22T05:59:44;12.30;99.90
19829;DHT22;10075;50.924;4.396;2024-03-22T06:02:10;12.20;99.90
19829;DHT22;10075;50.924;4.396;2024-03-22T06:04:37;12.00;99.90
19829;DHT22;10075;50.924;4.396;2024-03-22T06:07:04;11.90;99.90
19829;DHT22;10075;50.924;4.396;2024-03-22T06:09:32;11.80;99.90
19829;DHT22;10075;50.924;4.396;2024-03-22T06:12:04;11.80;99.90
19829;DHT22;10075;50.924;4.396;2024-03-22T06:14:31;11.80;99.90
19829;DHT22;10075;50.924;4.396;2024-03-22T06:16:57;11.80;99.90
19829;DHT22;10075;50.924;4.396;2024-03-22T06:19:24;11.80;99.90
19829;DHT22;10075;50.924;4.396;2024-03-22T06:21:50;11.80;99.90
19829;DHT22;10075;50.924;4.396;2024-03-22T06:24:18;11.90;99.90
19829;DHT22;10075;50.924;4.396;2024-03-22T06:26:44;11.80;99.90
19829;DHT22;10075;50.924;4.396;2024-03-22T06:29:11;11.80;99.90
19829;DHT22;10075;50.924;4.396;2024-03-22T06:31:38;11.80;99.90
19829;DHT22;10075;50.924;4.396;2024-03-22T06:34:05;11.70;99.90
19829;DHT22;10075;50.924;4.396;2024-03-22T06:36:31;11.70;99.90
19829;DHT22;10075;50.924;4.396;2024-03-22T06:38:59;11.80;99.90
19829;DHT22;10075;50.924;4.396;2024-03-22T06:41:27;12.00;99.90
19829;DHT22;10075;50.924;4.396;2024-03-22T06:43:54;12.10;99.90
19829;DHT22;10075;50.924;4.396;2024-03-22T06:46:20;12.10;99.90
19829;DHT22;10075;50.924;4.396;2024-03-22T06:48:48;12.10;99.90
19829;DHT22;10075;50.924;4.396;2024-03-22T06:51:14;12.10;99.90
19829;DHT22;10075;50.924;4.396;2024-03-22T06:53:41;12.10;99.90
19829;DHT22;10075;50.924;4.396;2024-03-22T06:56:07;12.40;99.90
19829;DHT22;10075;50.924;4.396;2024-03-22T06:58:38;12.40;99.90
19829;DHT22;10075;50.924;4.396;2024-03-22T07:01:04;12.30;99.90
19829;DHT22;10075;50.924;4.396;2024-03-22T07:03:31;12.30;99.90
19829;DHT22;10075;50.924;4.396;2024-03-22T07:05:59;12.40;99.90
19829;DHT22;10075;50.924;4.396;2024-03-22T07:08:26;12.60;99.90
19829;DHT22;10075;50.924;4.396;2024-03-22T07:10:54;12.60;99.90
19829;DHT22;10075;50.924;4.396;2024-03-22T07:13:20;12.60;99.90
19829;DHT22;10075;50.924;4.396;2024-03-22T07:15:48;12.40;99.90
19829;DHT22;10075;50.924;4.396;2024-03-22T07:18:15;12.40;99.90
19829;DHT22;10075;50.924;4.396;2024-03-22T07:20:42;12.50;99.90
19829;DHT22;10075;50.924;4.396;2024-03-22T07:23:08;12.50;99.90
19829;DHT22;10075;50.924;4.396;2024-03-22T07:25:35;12.50;99.90
19829;DHT22;10075;50.924;4.396;2024-03-22T07:28:01;12.50;99.90
19829;DHT22;10075;50.924;4.396;2024-03-22T07:30:28;12.50;99.90
19829;DHT22;10075;50.924;4.396;2024-03-22T07:32:55;12.40;99.90
19829;DHT22;10075;50.924;4.396;2024-03-22T07:35:22;12.40;99.90
19829;DHT22;10075;50.924;4.396;2024-03-22T07:37:48;12.30;99.90
19829;DHT22;10075;50.924;4.396;2024-03-22T07:40:15;12.30;99.90
19829;DHT22;10075;50.924;4.396;2024-03-22T07:42:41;12.40;99.90
19829;DHT22;10075;50.924;4.396;2024-03-22T07:45:08;12.50;99.90
19829;DHT22;10075;50.924;4.396;2024-03-22T07:47:35;12.40;99.90
19829;DHT22;10075;50.924;4.396;2024-03-22T07:50:05;12.30;99.90
19829;DHT22;10075;50.924;4.396;2024-03-22T07:52:31;12.30;99.90
19829;DHT22;10075;50.924;4.396;2024-03-22T07:54:58;12.50;99.90
19829;DHT22;10075;50.924;4.396;2024-03-22T07:57:24;12.50;99.90
19829;DHT22;10075;50.924;4.396;2024-03-22T07:59:51;12.60;99.90
19829;DHT22;10075;50.924;4.396;2024-03-22T08:02:17;12.60;99.90
19829;DHT22;10075;50.924;4.396;2024-03-22T08:04:46;12.60;99.90
19829;DHT22;10075;50.924;4.396;2024-03-22T08:07:17;12.60;99.90
19829;DHT22;10075;50.924;4.396;2024-03-22T08:09:44;12.50;99.90
19829;DHT22;10075;50.924;4.396;2024-03-22T08:12:10;12.50;99.90
19829;DHT22;10075;50.924;4.396;2024-03-22T08:14:37;12.50;99.90
19829;DHT22;10075;50.924;4.396;2024-03-22T08:17:03;12.70;99.90
19829;DHT22;10075;50.924;4.396;2024-03-22T08:19:37;12.80;99.90
19829;DHT22;10075;50.924;4.396;2024-03-22T08:22:03;12.90;99.90
19829;DHT22;10075;50.924;4.396;2024-03-22T08:24:32;13.00;99.90
19829;DHT22;10075;50.924;4.396;2024-03-22T08:26:58;13.00;99.90
19829;DHT22;10075;50.924;4.396;2024-03-22T08:29:25;12.90;99.90
19829;DHT22;10075;50.924;4.396;2024-03-22T08:31:51;12.80;99.90
19829;DHT22;10075;50.924;4.396;2024-03-22T08:34:22;12.80;99.90
19829;DHT22;10075;50.924;4.396;2024-03-22T08:36:48;12.90;99.90
19829;DHT22;10075;50.924;4.396;2024-03-22T08:39:17;13.00;99.90
19829;DHT22;10075;50.924;4.396;2024-03-22T08:41:45;13.20;99.90
19829;DHT22;10075;50.924;4.396;2024-03-22T08:44:13;13.30;99.90
19829;DHT22;10075;50.924;4.396;2024-03-22T08:46:39;13.30;99.90
19829;DHT22;10075;50.924;4.396;2024-03-22T08:49:06;13.30;99.90
19829;DHT22;10075;50.924;4.396;2024-03-22T08:51:32;13.40;99.90
19829;DHT22;10075;50.924;4.396;2024-03-22T08:53:59;13.40;99.90
19829;DHT22;10075;50.924;4.396;2024-03-22T08:56:26;13.40;99.90
19829;DHT22;10075;50.924;4.396;2024-03-22T08:58:54;13.50;99.90
19829;DHT22;10075;50.924;4.396;2024-03-22T09:01:20;13.60;99.90
19829;DHT22;10075;50.924;4.396;2024-03-22T09:03:47;13.60;99.90
19829;DHT22;10075;50.924;4.396;2024-03-22T09:06:16;13.60;99.90
19829;DHT22;10075;50.924;4.396;2024-03-22T09:08:43;13.60;99.90
19829;DHT22;10075;50.924;4.396;2024-03-22T09:11:09;13.60;99.90
19829;DHT22;10075;50.924;4.396;2024-03-22T09:13:36;13.60;99.90
19829;DHT22;10075;50.924;4.396;2024-03-22T09:16:03;13.50;99.90
19829;DHT22;10075;50.924;4.396;2024-03-22T09:18:30;13.60;99.90
19829;DHT22;10075;50.924;4.396;2024-03-22T09:20:56;14.10;99.90
19829;DHT22;10075;50.924;4.396;2024-03-22T09:23:23;14.10;99.90
19829;DHT22;10075;50.924;4.396;2024-03-22T09:25:49;13.70;99.90
19829;DHT22;10075;50.924;4.396;2024-03-22T09:28:16;13.80;99.90
19829;DHT22;10075;50.924;4.396;2024-03-22T09:30:42;13.80;99.90
19829;DHT22;10075;50.924;4.396;2024-03-22T09:33:11;13.70;99.90
19829;DHT22;10075;50.924;4.396;2024-03-22T09:35:37;13.50;99.90
19829;DHT22;10075;50.924;4.396;2024-03-22T09:38:04;13.50;99.90
19829;DHT22;10075;50.924;4.396;2024-03-22T09:40:30;13.50;99.90
19829;DHT22;10075;50.924;4.396;2024-03-22T09:43:01;13.80;99.90
19829;DHT22;10075;50.924;4.396;2024-03-22T09:45:28;13.90;99.90
19829;DHT22;10075;50.924;4.396;2024-03-22T09:47:57;14.00;99.90
19829;DHT22;10075;50.924;4.396;2024-03-22T09:50:25;13.90;99.90
19829;DHT22;10075;50.924;4.396;2024-03-22T09:52:52;14.10;99.90
19829;DHT22;10075;50.924;4.396;2024-03-22T09:55:20;14.10;99.90
19829;DHT22;10075;50.924;4.396;2024-03-22T09:57:49;14.10;99.90
19829;DHT22;10075;50.924;4.396;2024-03-22T10:00:18;14.00;99.90
19829;DHT22;10075;50.924;4.396;2024-03-22T10:02:46;13.80;99.90
19829;DHT22;10075;50.924;4.396;2024-03-22T10:05:13;13.90;99.90
19829;DHT22;10075;50.924;4.396;2024-03-22T10:07:41;14.00;99.90
19829;DHT22;10075;50.924;4.396;2024-03-22T10:10:07;14.30;99.90
19829;DHT22;10075;50.924;4.396;2024-03-22T10:12:34;14.50;99.90
19829;DHT22;10075;50.924;4.396;2024-03-22T10:15:00;14.60;99.90
19829;DHT22;10075;50.924;4.396;2024-03-22T10:17:28;14.40;99.90
19829;DHT22;10075;50.924;4.396;2024-03-22T10:19:54;14.40;99.90
19829;DHT22;10075;50.924;4.396;2024-03-22T10:22:21;14.50;99.90
19829;DHT22;10075;50.924;4.396;2024-03-22T10:24:49;14.70;99.90
19829;DHT22;10075;50.924;4.396;2024-03-22T10:27:16;14.70;99.90
19829;DHT22;10075;50.924;4.396;2024-03-22T10:29:43;14.80;99.90
19829;DHT22;10075;50.924;4.396;2024-03-22T10:32:11;14.90;99.90
19829;DHT22;10075;50.924;4.396;2024-03-22T10:34:38;14.90;99.90
19829;DHT22;10075;50.924;4.396;2024-03-22T10:37:08;14.80;99.90
19829;DHT22;10075;50.924;4.396;2024-03-22T10:39:36;14.70;99.90
19829;DHT22;10075;50.924;4.396;2024-03-22T10:42:07;14.60;99.90
19829;DHT22;10075;50.924;4.396;2024-03-22T10:44:32;14.60;99.90
19829;DHT22;10075;50.924;4.396;2024-03-22T10:47:01;14.40;99.90
19829;DHT22;10075;50.924;4.396;2024-03-22T10:49:30;14.60;99.90
19829;DHT22;10075;50.924;4.396;2024-03-22T10:52:05;14.80;99.90
19829;DHT22;10075;50.924;4.396;2024-03-22T10:54:34;14.50;99.90
19829;DHT22;10075;50.924;4.396;2024-03-22T10:57:02;14.30;99.90
19829;DHT22;10075;50.924;4.396;2024-03-22T10:59:35;14.10;99.90
19829;DHT22;10075;50.924;4.396;2024-03-22T11:02:04;14.30;99.90
19829;DHT22;10075;50.924;4.396;2024-03-22T11:04:30;14.40;99.90
19829;DHT22;10075;50.924;4.396;2024-03-22T11:06:57;14.40;99.90
19829;DHT22;10075;50.924;4.396;2024-03-22T11:09:24;14.40;99.90
19829;DHT22;10075;50.924;4.396;2024-03-22T11:11:52;14.40;99.90
19829;DHT22;10075;50.924;4.396;2024-03-22T11:14:18;14.50;99.90
19829;DHT22;10075;50.924;4.396;2024-03-22T11:16:47;14.50;99.90
19829;DHT22;10075;50.924;4.396;2024-03-22T11:19:13;14.30;99.90
19829;DHT22;10075;50.924;4.396;2024-03-22T11:21:40;14.10;99.90
19829;DHT22;10075;50.924;4.396;2024-03-22T11:24:06;13.90;99.90
19829;DHT22;10075;50.924;4.396;2024-03-22T11:26:33;14.10;99.90
19829;DHT22;10075;50.924;4.396;2024-03-22T11:29:00;14.00;99.90
19829;DHT22;10075;50.924;4.396;2024-03-22T11:31:27;13.90;99.90
19829;DHT22;10075;50.924;4.396;2024-03-22T11:33:55;14.00;99.90
19829;DHT22;10075;50.924;4.396;2024-03-22T11:36:23;14.20;99.90
19829;DHT22;10075;50.924;4.396;2024-03-22T11:38:49;14.30;99.90
19829;DHT22;10075;50.924;4.396;2024-03-22T11:41:19;14.30;99.90
19829;DHT22;10075;50.924;4.396;2024-03-22T11:43:47;14.50;99.90
19829;DHT22;10075;50.924;4.396;2024-03-22T11:46:15;14.20;99.90
19829;DHT22;10075;50.924;4.396;2024-03-22T11:48:41;13.80;99.90
19829;DHT22;10075;50.924;4.396;2024-03-22T11:51:11;13.70;99.90
19829;DHT22;10075;50.924;4.396;2024-03-22T11:53:37;13.90;99.90
19829;DHT22;10075;50.924;4.396;2024-03-22T11:56:04;14.00;99.90
19829;DHT22;10075;50.924;4.396;2024-03-22T11:58:30;14.10;99.90
19829;DHT22;10075;50.924;4.396;2024-03-22T12:00:57;14.20;99.90
19829;DHT22;10075;50.924;4.396;2024-03-22T12:03:23;14.20;99.90
19829;DHT22;10075;50.924;4.396;2024-03-22T12:05:54;14.10;99.90
19829;DHT22;10075;50.924;4.396;2024-03-22T12:08:21;14.00;99.90
19829;DHT22;10075;50.924;4.396;2024-03-22T12:10:48;14.00;99.90
19829;DHT22;10075;50.924;4.396;2024-03-22T12:13:14;13.90;99.90
19829;DHT22;10075;50.924;4.396;2024-03-22T12:15:41;13.80;99.90
19829;DHT22;10075;50.924;4.396;2024-03-22T12:18:07;13.90;99.90
19829;DHT22;10075;50.924;4.396;2024-03-22T12:20:34;14.10;99.90
19829;DHT22;10075;50.924;4.396;2024-03-22T12:23:00;14.30;99.90
19829;DHT22;10075;50.924;4.396;2024-03-22T12:25:28;14.10;99.90
19829;DHT22;10075;50.924;4.396;2024-03-22T12:27:54;14.00;99.90
19829;DHT22;10075;50.924;4.396;2024-03-22T12:30:22;13.90;99.90
19829;DHT22;10075;50.924;4.396;2024-03-22T12:32:47;13.90;99.90
19829;DHT22;10075;50.924;4.396;2024-03-22T12:35:15;13.60;99.90
19829;DHT22;10075;50.924;4.396;2024-03-22T12:37:41;13.40;99.90
19829;DHT22;10075;50.924;4.396;2024-03-22T12:40:08;13.50;99.90
19829;DHT22;10075;50.924;4.396;2024-03-22T12:42:36;13.30;99.90
19829;DHT22;10075;50.924;4.396;2024-03-22T12:45:04;13.30;99.90
19829;DHT22;10075;50.924;4.396;2024-03-22T12:47:30;13.30;99.90
19829;DHT22;10075;50.924;4.396;2024-03-22T12:49:56;13.30;99.90
19829;DHT22;10075;50.924;4.396;2024-03-22T12:52:22;13.40;99.90
19829;DHT22;10075;50.924;4.396;2024-03-22T12:54:49;13.40;99.90
19829;DHT22;10075;50.924;4.396;2024-03-22T12:57:15;13.30;99.90
19829;DHT22;10075;50.924;4.396;2024-03-22T12:59:43;13.40;99.90
19829;DHT22;10075;50.924;4.396;2024-03-22T13:02:12;13.50;99.90
19829;DHT22;10075;50.924;4.396;2024-03-22T13:04:39;13.60;99.90
19829;DHT22;10075;50.924;4.396;2024-03-22T13:07:04;13.80;99.90
19829;DHT22;10075;50.924;4.396;2024-03-22T13:09:31;13.70;99.90
19829;DHT22;10075;50.924;4.396;2024-03-22T13:11:57;13.70;99.90
19829;DHT22;10075;50.924;4.396;2024-03-22T13:14:24;13.80;99.90
19829;DHT22;10075;50.924;4.396;2024-03-22T13:16:52;13.70;99.90
19829;DHT22;10075;50.924;4.396;2024-03-22T13:19:19;13.60;99.90
19829;DHT22;10075;50.924;4.396;2024-03-22T13:21:45;13.40;99.90
19829;DHT22;10075;50.924;4.396;2024-03-22T13:24:14;13.60;99.90
19829;DHT22;10075;50.924;4.396;2024-03-22T13:26:40;13.90;99.90
19829;DHT22;10075;50.924;4.396;2024-03-22T13:29:07;14.00;99.90
19829;DHT22;10075;50.924;4.396;2024-03-22T13:31:33;14.00;99.90
19829;DHT22;10075;50.924;4.396;2024-03-22T13:34:01;13.70;99.90
19829;DHT22;10075;50.924;4.396;2024-03-22T13:36:31;13.90;99.90
19829;DHT22;10075;50.924;4.396;2024-03-22T13:38:58;14.00;99.90
19829;DHT22;10075;50.924;4.396;2024-03-22T13:41:25;14.20;99.90
19829;DHT22;10075;50.924;4.396;2024-03-22T13:43:51;14.40;99.90
19829;DHT22;10075;50.924;4.396;2024-03-22T13:46:18;13.90;99.90
19829;DHT22;10075;50.924;4.396;2024-03-22T13:48:44;13.60;99.90
19829;DHT22;10075;50.924;4.396;2024-03-22T13:51:12;13.40;99.90
19829;DHT22;10075;50.924;4.396;2024-03-22T13:53:38;13.70;99.90
19829;DHT22;10075;50.924;4.396;2024-03-22T13:56:06;13.50;99.90
19829;DHT22;10075;50.924;4.396;2024-03-22T13:58:32;13.70;99.90
19829;DHT22;10075;50.924;4.396;2024-03-22T14:01:00;13.90;99.90
19829;DHT22;10075;50.924;4.396;2024-03-22T14:03:26;14.10;99.90
19829;DHT22;10075;50.924;4.396;2024-03-22T14:05:53;14.30;99.90
19829;DHT22;10075;50.924;4.396;2024-03-22T14:08:20;14.20;99.90
19829;DHT22;10075;50.924;4.396;2024-03-22T14:10:47;14.20;99.90
19829;DHT22;10075;50.924;4.396;2024-03-22T14:13:13;14.40;99.90
19829;DHT22;10075;50.924;4.396;2024-03-22T14:15:41;14.40;99.90
19829;DHT22;10075;50.924;4.396;2024-03-22T14:18:06;14.50;99.90
19829;DHT22;10075;50.924;4.396;2024-03-22T14:20:33;14.60;99.90
19829;DHT22;10075;50.924;4.396;2024-03-22T14:22:59;14.60;99.90
19829;DHT22;10075;50.924;4.396;2024-03-22T14:25:28;14.50;99.90
19829;DHT22;10075;50.924;4.396;2024-03-22T14:27:54;14.40;99.90
19829;DHT22;10075;50.924;4.396;2024-03-22T14:30:21;14.60;99.90
19829;DHT22;10075;50.924;4.396;2024-03-22T14:32:48;14.50;99.90
19829;DHT22;10075;50.924;4.396;2024-03-22T14:35:18;14.20;99.90
19829;DHT22;10075;50.924;4.396;2024-03-22T14:37:44;13.80;99.90
19829;DHT22;10075;50.924;4.396;2024-03-22T14:40:11;13.50;99.90
19829;DHT22;10075;50.924;4.396;2024-03-22T14:42:38;13.30;99.90
19829;DHT22;10075;50.924;4.396;2024-03-22T14:45:06;13.10;99.90
19829;DHT22;10075;50.924;4.396;2024-03-22T14:47:35;13.10;99.90
19829;DHT22;10075;50.924;4.396;2024-03-22T14:50:02;13.10;99.90
19829;DHT22;10075;50.924;4.396;2024-03-22T14:52:29;13.10;99.90
19829;DHT22;10075;50.924;4.396;2024-03-22T14:54:56;13.40;99.90
19829;DHT22;10075;50.924;4.396;2024-03-22T14:57:22;13.40;99.90
19829;DHT22;10075;50.924;4.396;2024-03-22T14:59:51;13.60;99.90
19829;DHT22;10075;50.924;4.396;2024-03-22T15:02:18;13.70;99.90
19829;DHT22;10075;50.924;4.396;2024-03-22T15:04:45;13.70;99.90
19829;DHT22;10075;50.924;4.396;2024-03-22T15:07:11;13.50;99.90
19829;DHT22;10075;50.924;4.396;2024-03-22T15:09:38;13.50;99.90
19829;DHT22;10075;50.924;4.396;2024-03-22T15:12:04;13.30;99.90
19829;DHT22;10075;50.924;4.396;2024-03-22T15:14:31;13.30;99.90
19829;DHT22;10075;50.924;4.396;2024-03-22T15:16:59;13.10;99.90
19829;DHT22;10075;50.924;4.396;2024-03-22T15:19:26;13.10;99.90
19829;DHT22;10075;50.924;4.396;2024-03-22T15:21:52;12.70;99.90
19829;DHT22;10075;50.924;4.396;2024-03-22T15:24:18;12.60;99.90
19829;DHT22;10075;50.924;4.396;2024-03-22T15:26:45;12.70;99.90
19829;DHT22;10075;50.924;4.396;2024-03-22T15:29:12;12.80;99.90